Time;durP1;ratioP1;P1;durP2;ratioP2;P2;SDS_P1;SDS_P2;PMS_P1;PMS_P2;Temp;Humidity;BMP_temperature;BMP_pressure;BME280_temperature;BME280_humidity;BME280_pressure;Samples;Min_cycle;Max_cycle;Signal;HPM_P1;HPM_P2
2021/03/04 07:04:09;;;;;;;28.92;18.60;;;;;;;;;;10606328;28;20016;-86
2021/03/04 07:09:26;;;;;;;40.03;27.00;;;;;;;;;;10601933;28;20282;-87
2021/03/04 07:15:02;;;;;;;51.42;35.65;;;;;;;;;;10581677;28;20036;-88
2021/03/04 07:20:30;;;;;;;46.85;33.90;;;;;;;;;;10600560;28;20042;-88
2021/03/04 08:23:02;;;;;;;9.60;8.60;;;;;;;;;;10598020;27;20047;-86
2021/03/04 08:28:05;;;;;;;10.18;9.18;;;;;;;;;;10579556;28;20419;-86
2021/03/04 08:33:07;;;;;;;8.82;7.93;;;;;;;;;;10578339;28;20059;-86
2021/03/04 08:38:09;;;;;;;12.88;9.55;;;;;;;;;;10578051;28;20027;-86
2021/03/04 08:43:15;;;;;;;9.82;8.07;;;;;;;;;;10559794;28;20032;-87
2021/03/04 08:48:28;;;;;;;9.70;8.70;;;;;;;;;;10576017;28;20485;-88
2021/03/04 08:53:37;;;;;;;7.32;6.57;;;;;;;;;;10574444;28;20027;-89
2021/03/04 08:58:45;;;;;;;8.65;7.72;;;;;;;;;;10598740;22;20039;-85
2021/03/04 09:03:49;;;;;;;6.82;5.82;;;;;;;;;;10597441;28;20032;-86
2021/03/04 09:08:51;;;;;;;6.30;5.70;;;;;;;;;;10537042;28;20024;-84
2021/03/04 09:13:52;;;;;;;5.82;5.22;;;;;;;;;;10511725;28;20029;-85
2021/03/04 09:18:53;;;;;;;6.53;5.93;;;;;;;;;;10509587;28;20044;-84
2021/03/04 09:23:54;;;;;;;6.10;5.45;;;;;;;;;;10515161;28;20029;-83
2021/03/04 09:28:55;;;;;;;5.78;5.18;;;;;;;;;;10517506;28;20039;-84
2021/03/04 09:34:00;;;;;;;5.55;5.05;;;;;;;;;;10516534;28;20032;-83
2021/03/04 09:39:01;;;;;;;4.88;4.20;;;;;;;;;;10513431;28;20056;-85
2021/03/04 09:44:05;;;;;;;5.65;4.78;;;;;;;;;;10510405;28;20028;-83
2021/03/04 09:49:07;;;;;;;5.05;4.50;;;;;;;;;;10512192;28;20025;-83
2021/03/04 09:54:09;;;;;;;5.15;4.05;;;;;;;;;;10515383;28;20025;-83
2021/03/04 09:59:16;;;;;;;4.15;3.50;;;;;;;;;;10516438;28;20059;-85
2021/03/04 10:04:25;;;;;;;5.22;3.60;;;;;;;;;;10542991;28;20028;-84
2021/03/04 10:09:26;;;;;;;4.10;3.40;;;;;;;;;;10556814;28;20525;-84
2021/03/04 10:14:27;;;;;;;5.28;4.78;;;;;;;;;;10555136;28;20028;-83
2021/03/04 10:19:28;;;;;;;6.40;4.18;;;;;;;;;;10554309;28;20024;-83
2021/03/04 10:24:29;;;;;;;5.63;4.78;;;;;;;;;;10553947;28;20393;-83
2021/03/04 10:29:31;;;;;;;4.70;3.70;;;;;;;;;;10551690;28;20064;-84
2021/03/04 10:34:32;;;;;;;4.30;3.85;;;;;;;;;;10552813;28;20024;-83
2021/03/04 10:39:33;;;;;;;3.60;3.30;;;;;;;;;;10552051;28;20118;-83
2021/03/04 10:44:34;;;;;;;4.75;4.25;;;;;;;;;;10551850;28;20020;-83
2021/03/04 10:49:35;;;;;;;3.97;3.55;;;;;;;;;;10551837;28;20028;-84
2021/03/04 10:54:36;;;;;;;4.03;3.40;;;;;;;;;;10551603;28;20082;-83
2021/03/04 10:59:36;;;;;;;5.13;4.63;;;;;;;;;;10553556;28;20477;-83
2021/03/04 11:04:37;;;;;;;5.47;4.88;;;;;;;;;;10555148;28;20097;-84
2021/03/04 11:09:38;;;;;;;6.72;6.03;;;;;;;;;;10556541;28;20039;-84
2021/03/04 11:14:39;;;;;;;13.18;10.93;;;;;;;;;;10555372;28;20470;-83
2021/03/04 11:19:40;;;;;;;4.32;3.92;;;;;;;;;;10551010;28;20454;-83
2021/03/04 11:24:44;;;;;;;5.32;4.75;;;;;;;;;;10551425;28;20035;-84
2021/03/04 11:29:47;;;;;;;8.15;6.47;;;;;;;;;;10554007;28;20043;-83
2021/03/04 11:34:48;;;;;;;3.95;3.45;;;;;;;;;;10551154;28;20096;-85
2021/03/04 11:39:50;;;;;;;3.30;2.65;;;;;;;;;;10552469;28;20027;-84
2021/03/04 11:44:54;;;;;;;3.45;3.13;;;;;;;;;;10544382;28;20121;-84
2021/03/04 11:49:54;;;;;;;9.10;7.22;;;;;;;;;;10556516;28;20035;-84
2021/03/04 11:54:55;;;;;;;7.95;5.90;;;;;;;;;;10555386;28;20031;-85
2021/03/04 11:59:57;;;;;;;13.40;10.27;;;;;;;;;;10554411;28;20032;-85
2021/03/04 12:04:58;;;;;;;6.13;4.60;;;;;;;;;;10555300;28;20032;-85
2021/03/04 12:09:59;;;;;;;7.07;5.43;;;;;;;;;;10556248;28;20397;-85
2021/03/04 12:15:00;;;;;;;9.00;7.38;;;;;;;;;;10554589;28;20112;-85
2021/03/04 12:20:04;;;;;;;9.27;7.43;;;;;;;;;;10555366;28;20110;-85
2021/03/04 12:25:13;;;;;;;7.93;6.57;;;;;;;;;;10556986;28;20401;-85
2021/03/04 12:30:16;;;;;;;12.25;9.40;;;;;;;;;;10557846;28;20032;-85
2021/03/04 12:35:17;;;;;;;8.30;6.90;;;;;;;;;;10556780;28;20141;-85
2021/03/04 12:40:18;;;;;;;9.70;7.88;;;;;;;;;;10555353;28;20043;-85
2021/03/04 12:45:19;;;;;;;17.20;13.02;;;;;;;;;;10556091;28;20040;-85
2021/03/04 12:50:20;;;;;;;9.43;7.50;;;;;;;;;;10554557;28;20088;-84
2021/03/04 12:55:22;;;;;;;9.95;7.78;;;;;;;;;;10551887;28;20028;-85
2021/03/04 13:00:26;;;;;;;10.10;8.40;;;;;;;;;;10548019;28;20031;-86
2021/03/04 13:05:27;;;;;;;7.35;5.72;;;;;;;;;;10544892;28;20108;-87
2021/03/04 13:10:31;;;;;;;11.38;8.95;;;;;;;;;;10545583;28;20020;-85
2021/03/04 13:15:32;;;;;;;10.68;8.30;;;;;;;;;;10548533;28;20067;-85
2021/03/04 13:20:32;;;;;;;9.75;7.85;;;;;;;;;;10550201;28;20111;-85
2021/03/04 13:25:33;;;;;;;12.90;9.35;;;;;;;;;;10551270;28;20462;-85
2021/03/04 13:30:36;;;;;;;9.82;7.80;;;;;;;;;;10550228;28;20024;-84
2021/03/04 13:35:37;;;;;;;14.82;10.40;;;;;;;;;;10549960;28;20473;-85
2021/03/04 13:40:37;;;;;;;10.70;7.68;;;;;;;;;;10551894;28;20066;-85
2021/03/04 13:45:39;;;;;;;8.57;7.10;;;;;;;;;;10551582;28;20024;-85
2021/03/04 13:50:40;;;;;;;11.90;9.10;;;;;;;;;;10550858;28;20496;-85
2021/03/04 13:55:42;;;;;;;9.70;7.90;;;;;;;;;;10549358;28;20028;-85
2021/03/04 14:00:43;;;;;;;9.20;6.82;;;;;;;;;;10547329;28;20132;-84
2021/03/04 14:05:44;;;;;;;6.90;5.38;;;;;;;;;;10542858;28;20036;-85
2021/03/04 14:10:45;;;;;;;7.20;5.93;;;;;;;;;;10545001;28;20130;-83
2021/03/04 14:15:46;;;;;;;8.10;7.10;;;;;;;;;;10547696;28;20024;-83
2021/03/04 14:20:47;;;;;;;8.35;6.78;;;;;;;;;;10545916;28;20044;-84
2021/03/04 14:25:48;;;;;;;7.05;5.60;;;;;;;;;;10545707;28;20035;-84
2021/03/04 14:30:49;;;;;;;6.70;5.07;;;;;;;;;;10545337;28;20035;-84
2021/03/04 14:35:50;;;;;;;6.00;5.05;;;;;;;;;;10547454;28;20506;-85
2021/03/04 14:40:51;;;;;;;8.63;6.78;;;;;;;;;;10548485;28;20050;-84
2021/03/04 14:45:52;;;;;;;5.68;4.82;;;;;;;;;;10550006;28;20042;-84
2021/03/04 14:50:53;;;;;;;6.70;4.72;;;;;;;;;;10548545;28;20393;-84
2021/03/04 14:55:54;;;;;;;4.85;3.90;;;;;;;;;;10545561;28;20031;-83
2021/03/04 15:00:55;;;;;;;6.82;4.60;;;;;;;;;;10546300;28;20036;-84
2021/03/04 15:05:56;;;;;;;7.38;5.65;;;;;;;;;;10546050;28;20034;-84
2021/03/04 15:10:56;;;;;;;11.52;9.43;;;;;;;;;;10555211;28;20028;-86
2021/03/04 15:15:58;;;;;;;7.63;6.15;;;;;;;;;;10545132;28;20099;-86
2021/03/04 15:20:59;;;;;;;8.93;7.03;;;;;;;;;;10550851;28;20511;-86
2021/03/04 15:25:59;;;;;;;7.45;5.63;;;;;;;;;;10552450;28;20021;-85
2021/03/04 15:31:00;;;;;;;6.95;5.05;;;;;;;;;;10553194;28;20031;-85
2021/03/04 15:36:01;;;;;;;6.28;4.70;;;;;;;;;;10551062;28;20036;-84
2021/03/04 15:41:05;;;;;;;8.07;6.78;;;;;;;;;;10552792;28;20028;-86
2021/03/04 15:46:07;;;;;;;7.47;5.90;;;;;;;;;;10550544;28;20024;-87
2021/03/04 15:51:09;;;;;;;6.47;5.80;;;;;;;;;;10550815;28;20024;-87
2021/03/04 15:56:10;;;;;;;5.80;4.28;;;;;;;;;;10549818;28;20027;-87
2021/03/04 16:01:11;;;;;;;5.80;5.10;;;;;;;;;;10549393;28;20123;-86
2021/03/04 16:06:12;;;;;;;5.50;5.00;;;;;;;;;;10550371;28;20020;-85
2021/03/04 16:11:13;;;;;;;5.18;4.68;;;;;;;;;;10556527;28;20122;-86
2021/03/04 16:16:14;;;;;;;5.40;4.88;;;;;;;;;;10551544;28;20028;-86
2021/03/04 16:21:15;;;;;;;5.88;5.28;;;;;;;;;;10552448;28;20466;-86
2021/03/04 16:26:16;;;;;;;5.30;4.80;;;;;;;;;;10556788;28;20031;-84
2021/03/04 16:31:17;;;;;;;6.00;4.95;;;;;;;;;;10565131;28;20028;-85
2021/03/04 16:36:18;;;;;;;7.68;6.90;;;;;;;;;;10563446;28;20024;-85
2021/03/04 16:41:19;;;;;;;8.50;7.60;;;;;;;;;;10566174;28;20007;-85
2021/03/04 16:46:51;;;;;;;7.80;7.00;;;;;;;;;;10591826;28;20028;-85
2021/03/04 16:51:54;;;;;;;7.10;6.32;;;;;;;;;;10591280;28;20027;-84
2021/03/04 16:56:58;;;;;;;9.68;8.68;;;;;;;;;;10572757;28;20028;-82
2021/03/04 17:02:03;;;;;;;6.05;5.10;;;;;;;;;;10559286;28;20036;-82
2021/03/04 17:07:04;;;;;;;7.55;6.25;;;;;;;;;;10559362;28;20027;-82
2021/03/04 17:12:42;;;;;;;6.85;6.15;;;;;;;;;;10558218;28;20123;-83
2021/03/04 17:18:17;;;;;;;9.27;8.35;;;;;;;;;;10505485;28;20032;-81
2021/03/04 17:23:37;;;;;;;9.23;7.85;;;;;;;;;;10540044;28;20111;-83
2021/03/04 17:28:40;;;;;;;6.15;4.20;;;;;;;;;;10536829;28;20421;-83
2021/03/04 17:33:42;;;;;;;8.13;7.32;;;;;;;;;;10534139;28;20242;-84
2021/03/04 17:38:43;;;;;;;11.27;10.07;;;;;;;;;;10550438;28;20028;-84
2021/03/04 17:43:43;;;;;;;9.55;8.55;;;;;;;;;;10549154;28;20123;-83
2021/03/04 17:48:45;;;;;;;9.20;8.27;;;;;;;;;;10551283;28;20028;-83
2021/03/04 17:53:46;;;;;;;9.00;8.05;;;;;;;;;;10550267;28;20024;-83
2021/03/04 17:58:47;;;;;;;8.75;7.85;;;;;;;;;;10548908;28;20506;-83
2021/03/04 18:03:49;;;;;;;8.65;7.70;;;;;;;;;;10549046;28;20048;-83
2021/03/04 18:08:50;;;;;;;8.55;7.70;;;;;;;;;;10552149;28;20087;-83
2021/03/04 18:13:51;;;;;;;7.25;6.55;;;;;;;;;;10549367;28;20051;-84
2021/03/04 18:18:52;;;;;;;7.80;6.97;;;;;;;;;;10548456;28;20032;-83
2021/03/04 18:23:53;;;;;;;7.25;6.55;;;;;;;;;;10551586;28;20084;-83
2021/03/04 18:28:55;;;;;;;8.07;7.28;;;;;;;;;;10551169;28;20024;-83
2021/03/04 18:33:56;;;;;;;7.20;6.20;;;;;;;;;;10531723;28;20031;-84
2021/03/04 18:38:57;;;;;;;6.28;5.38;;;;;;;;;;10549029;28;20026;-83
2021/03/04 18:43:59;;;;;;;6.00;5.40;;;;;;;;;;10547573;28;20460;-83
2021/03/04 18:49:00;;;;;;;6.57;5.88;;;;;;;;;;10548557;28;20052;-84
2021/03/04 18:54:03;;;;;;;4.22;3.83;;;;;;;;;;10547979;28;20035;-83
2021/03/04 18:59:04;;;;;;;7.05;6.35;;;;;;;;;;10531841;28;20096;-83
2021/03/04 19:04:05;;;;;;;7.45;5.68;;;;;;;;;;10550505;28;20069;-83
2021/03/04 19:09:07;;;;;;;5.03;4.53;;;;;;;;;;10551449;28;20055;-82
2021/03/04 19:14:08;;;;;;;6.05;5.32;;;;;;;;;;10554774;28;20031;-82
2021/03/04 19:19:13;;;;;;;5.05;4.55;;;;;;;;;;10553673;28;20043;-82
2021/03/04 19:24:14;;;;;;;4.43;3.67;;;;;;;;;;10552938;28;20070;-82
2021/03/04 19:29:15;;;;;;;4.18;3.78;;;;;;;;;;10556161;28;20029;-86
2021/03/04 19:34:16;;;;;;;5.40;4.90;;;;;;;;;;10555034;28;20038;-85
2021/03/04 19:39:18;;;;;;;4.07;3.60;;;;;;;;;;10555766;28;20024;-86
2021/03/04 19:44:19;;;;;;;4.90;3.70;;;;;;;;;;10554352;28;20531;-83
2021/03/04 19:49:20;;;;;;;7.50;6.63;;;;;;;;;;10550917;28;20074;-83
2021/03/04 19:54:24;;;;;;;5.22;3.90;;;;;;;;;;10551600;28;20028;-83
2021/03/04 19:59:25;;;;;;;4.75;4.10;;;;;;;;;;10554114;28;20421;-82
2021/03/04 20:04:26;;;;;;;5.25;4.07;;;;;;;;;;10558271;28;20016;-82
2021/03/04 20:09:27;;;;;;;5.50;3.53;;;;;;;;;;10560686;28;20024;-84
2021/03/04 20:14:28;;;;;;;5.43;4.18;;;;;;;;;;10541804;28;20032;-84
2021/03/04 20:19:30;;;;;;;5.63;3.47;;;;;;;;;;10561676;28;20079;-86
2021/03/04 20:24:31;;;;;;;5.47;2.88;;;;;;;;;;10563296;28;20020;-86
2021/03/04 20:29:33;;;;;;;5.22;2.50;;;;;;;;;;10546253;28;20036;-86
2021/03/04 20:34:43;;;;;;;4.85;2.60;;;;;;;;;;10562470;28;20508;-87
2021/03/04 20:40:05;;;;;;;5.30;2.63;;;;;;;;;;10563012;28;20035;-86
2021/03/04 20:45:27;;;;;;;6.03;2.42;;;;;;;;;;10535471;28;20030;-86
2021/03/04 20:50:28;;;;;;;3.85;2.28;;;;;;;;;;10556582;28;20062;-86
2021/03/04 20:55:29;;;;;;;5.05;2.47;;;;;;;;;;10561588;28;20043;-86
2021/03/04 21:00:31;;;;;;;4.25;2.30;;;;;;;;;;10557162;28;20036;-86
2021/03/04 21:05:31;;;;;;;4.72;2.50;;;;;;;;;;10553058;28;20050;-86
2021/03/04 21:10:32;;;;;;;8.15;3.50;;;;;;;;;;10551448;28;20024;-83
2021/03/04 21:15:33;;;;;;;5.78;2.80;;;;;;;;;;10551954;28;20035;-83
2021/03/04 21:20:34;;;;;;;4.88;2.47;;;;;;;;;;10560161;28;20020;-84
